메인 페이지
METAR-TAF:

METAR-TAF

공항 :

Limón, 코스타리카

위도: 10-00N, 경도: 083-03W, 고도: 5m

현재 날씨관측

예보는 1 시간 9분 전, 16:00시(UTC)에 발표되었습니다.
북북동8kt
온도 28°C
습도 74%
기압 1016 hPa
시정 10km 이상
1500m 미만 상공 구름 및 적란운 없음

METAR: MRLM 031600Z 02008KT CAVOK 28/23 A3000

시각: 11:09 (17:09 UTC)

예보

예보는 6 시간 6분 전, 11:03시(UTC)에 발표되었습니다.
예보 대상 시간: 03일 12시부터 04일 12시까지 (UTC)
서남서5kt
시정 10km 이상
고도 2000ft 상공 구름 조금
고도 10000ft 상공 구름 보통
전환 중
03일 15시부터 03일 17시까지 (UTC)
동북동6kt
전환 중
04일 00시부터 04일 03시까지 (UTC)
5kt

TAF: MRLM 031103Z 0312/0412 25005KT 9999 FEW020 SCT100 TX31/0320Z TN20/0411Z BECMG 0315/0317 07006KT BECMG 0400/0403 26005KT

4,000개 이상의 공항 관측 자료 및 예보 (METAR 및 TAF 보고).

지도상에서 검색 가능한 기상관측소가 노란 점과 빨간 점으로 표시되어 있습니다.

기상관측소 명을 보려면 표시 위로 마우스를 이동하세요.

날씨 관측과 예보를 보려면 클릭하세요.

지도 변경 : 확대하려면 엑스 표시가 있는 녹색 버튼, 축소하려면 빼기 표시가 있는 녹색 버튼, 다음 페이지의 지도를 보려면 녹색 화살표를 클릭하세요.


METAR-TAF: